Accueil
METAR-TAF:

METAR-TAF

Aéroports :

Aéroport de Žilina

Žilina, Slovaquie

latitude: 49-14N, longitude: 018-36-49E, altitude: 312 m

Observation

Le bulletin a été fait il y a 28 minutes, à 10:30 UTC
Vent 5 kt de est/nord-est, variant entre nord-est et est/sud-est
Température 15°C
Humidité 67%
Pression 1016 hPa
Visibilité 10 km ou plus
Nuages fragmentés à une hauteur de 2500 ft

METAR: LZZI 131030Z 07005KT 040V110 9999 BKN025 15/09 Q1016

Heure: 12:58 (10:58 UTC)

Prévision

Le bulletin a été fait il y a 2 heures et 43 minutes, à 08:15 UTC
Prévision valable du 13 à 09 UTC au 13 à 18 UTC
Vent 10 kt de nord-est
Visibilité 10 km ou plus
Nuages épars à une hauteur de 2500 ft
Temporairement
du 13 à 09 UTC au 13 à 18 UTC
Nuages fragmentés à une hauteur de 2000 ft
pluie faible,

TAF: LZZI 130815Z 1309/1318 05010KT 9999 SCT025 TEMPO 1309/1318 -RA BKN020

Observations et prévisions météorologiques de plus de 4000 aéroports (messages METAR et TAF).

Les stations disponibles sont représentées par des disques jaunes et rouges sur la carte.

Passer la souris dessus pour voir le nom de la station.

Cliquer dessus pour voir les observations et prévisions météorologiques.

Pour changer de carte: cliquez sur les boutons verts avec une croix noire pour zoomer, sur le bouton vert avec un tiret pour effectuer un zoom arrière, ou sur les flèches vertes pour les cartes adjacentes.


METAR-TAF: